createdAt,value
2018-05-13T00:00:51.380Z,7.00
2018-05-13T00:01:51.598Z,7.30
2018-05-13T00:02:51.591Z,7.30
2018-05-13T00:03:51.602Z,7.30
2018-05-13T00:04:51.607Z,7.10
2018-05-13T00:05:51.403Z,7.40
2018-05-13T00:06:51.410Z,7.40
2018-05-13T00:07:51.407Z,7.20
2018-05-13T00:08:51.420Z,7.20
2018-05-13T00:09:51.598Z,7.10
2018-05-13T00:10:51.410Z,7.70
2018-05-13T00:11:51.408Z,7.40
2018-05-13T00:12:51.424Z,7.50
2018-05-13T00:13:51.401Z,7.90
2018-05-13T00:14:51.409Z,7.00
2018-05-13T00:15:51.401Z,7.30
2018-05-13T00:16:51.604Z,6.80
2018-05-13T00:17:51.422Z,7.10
2018-05-13T00:18:51.407Z,7.60
2018-05-13T00:19:51.442Z,7.20
2018-05-13T00:20:51.628Z,7.50
2018-05-13T00:21:51.408Z,7.20
2018-05-13T00:22:51.435Z,7.60
2018-05-13T00:23:51.425Z,7.30
2018-05-13T00:24:51.417Z,7.50
2018-05-13T00:25:51.432Z,7.70
2018-05-13T00:26:51.420Z,8.10
2018-05-13T00:27:51.638Z,8.50
2018-05-13T00:28:51.432Z,7.70
2018-05-13T00:29:51.435Z,7.30
2018-05-13T00:30:51.424Z,8.10
2018-05-13T00:31:51.435Z,7.70
2018-05-13T00:32:51.425Z,8.00
2018-05-13T00:33:51.431Z,8.30
2018-05-13T00:34:51.429Z,8.30
2018-05-13T00:35:51.430Z,8.50
2018-05-13T00:36:51.433Z,8.90
2018-05-13T00:37:51.443Z,8.50
2018-05-13T00:38:51.433Z,8.70
2018-05-13T00:39:51.439Z,8.30
2018-05-13T00:40:51.436Z,7.90
2018-05-13T00:41:51.437Z,8.40
2018-05-13T00:42:51.451Z,8.20
2018-05-13T00:43:51.441Z,8.30
2018-05-13T00:44:51.470Z,8.70
2018-05-13T00:45:51.444Z,9.10
2018-05-13T00:46:51.443Z,8.20
2018-05-13T00:47:51.655Z,8.50
2018-05-13T00:48:51.456Z,8.90
2018-05-13T00:49:51.448Z,8.60
2018-05-13T00:50:51.655Z,9.00
2018-05-13T00:51:51.459Z,8.30
2018-05-13T00:52:51.671Z,8.30
2018-05-13T00:53:51.453Z,8.50
2018-05-13T00:54:51.656Z,8.60
2018-05-13T00:55:51.469Z,8.90
2018-05-13T00:56:51.660Z,9.70
2018-05-13T00:57:51.660Z,9.40
2018-05-13T00:58:51.663Z,9.10
2018-05-13T00:59:51.472Z,9.20
2018-05-13T01:00:51.674Z,9.10
2018-05-13T01:01:51.477Z,9.30
2018-05-13T01:02:51.494Z,8.80
2018-05-13T01:03:51.472Z,9.50
2018-05-13T01:04:51.464Z,9.20
2018-05-13T01:05:51.668Z,9.40
2018-05-13T01:06:51.480Z,9.50
2018-05-13T01:07:51.467Z,8.90
2018-05-13T01:08:51.482Z,8.80
2018-05-13T01:09:51.484Z,8.60
2018-05-13T01:10:51.482Z,8.40
2018-05-13T01:11:51.475Z,9.00
2018-05-13T01:12:51.474Z,8.90
2018-05-13T01:13:51.477Z,8.80
2018-05-13T01:14:51.485Z,9.10
2018-05-13T01:15:51.478Z,9.00
2018-05-13T01:16:51.480Z,8.50
2018-05-13T01:17:51.484Z,9.10
2018-05-13T01:18:51.481Z,9.00
2018-05-13T01:19:51.684Z,9.40
2018-05-13T01:20:51.498Z,9.50
2018-05-13T01:21:51.496Z,9.10
2018-05-13T01:22:51.488Z,9.80
2018-05-13T01:23:51.486Z,10.00
2018-05-13T01:24:51.499Z,8.70
2018-05-13T01:25:51.499Z,8.60
2018-05-13T01:26:51.496Z,9.30
2018-05-13T01:27:51.500Z,9.10
2018-05-13T01:28:51.498Z,9.20
2018-05-13T01:29:51.695Z,9.50
2018-05-13T01:30:51.696Z,9.80
2018-05-13T01:31:51.493Z,10.00
2018-05-13T01:32:51.697Z,9.20
2018-05-13T01:33:51.501Z,9.50
2018-05-13T01:34:51.702Z,9.50
2018-05-13T01:35:51.497Z,8.30
2018-05-13T01:36:51.498Z,8.80
2018-05-13T01:37:51.504Z,8.90
2018-05-13T01:38:51.716Z,8.70
2018-05-13T01:39:51.503Z,8.70
2018-05-13T01:40:51.521Z,9.30
2018-05-13T01:41:51.515Z,8.10
2018-05-13T01:42:51.506Z,8.30
2018-05-13T01:43:51.509Z,8.40
2018-05-13T01:44:51.539Z,8.60
2018-05-13T01:45:51.520Z,8.60
2018-05-13T01:46:51.523Z,9.00
2018-05-13T01:47:51.512Z,8.80
2018-05-13T01:48:51.540Z,8.20
2018-05-13T01:49:51.527Z,8.80
2018-05-13T01:50:51.516Z,8.90
2018-05-13T01:51:51.518Z,9.10
2018-05-13T01:52:51.518Z,9.00
2018-05-13T01:53:51.518Z,8.70
2018-05-13T01:54:51.733Z,8.30
2018-05-13T01:55:51.533Z,9.20
2018-05-13T01:56:51.523Z,8.70
2018-05-13T01:57:51.522Z,8.80
2018-05-13T01:58:51.524Z,9.20
2018-05-13T01:59:51.523Z,9.50
2018-05-13T02:00:51.524Z,9.10
2018-05-13T02:01:51.537Z,9.10
2018-05-13T02:02:51.537Z,9.60
2018-05-13T02:03:51.528Z,9.80
2018-05-13T02:04:51.528Z,9.80
2018-05-13T02:05:51.529Z,10.20
2018-05-13T02:06:51.530Z,10.50
2018-05-13T02:07:51.531Z,9.80
2018-05-13T02:08:51.532Z,10.90
2018-05-13T02:09:51.534Z,10.20
2018-05-13T02:10:51.535Z,10.70
2018-05-13T02:11:51.537Z,10.50
2018-05-13T02:12:51.538Z,10.90
2018-05-13T02:13:51.538Z,10.50
2018-05-13T02:14:51.542Z,10.00
2018-05-13T02:15:51.539Z,10.20
2018-05-13T02:16:51.555Z,10.00
2018-05-13T02:17:51.555Z,10.30
2018-05-13T02:18:51.747Z,10.20
2018-05-13T02:19:51.554Z,10.50
2018-05-13T02:20:51.747Z,9.70
2018-05-13T02:21:51.547Z,9.70
2018-05-13T02:22:51.765Z,9.90
2018-05-13T02:23:51.547Z,9.60
2018-05-13T02:24:51.552Z,10.40
2018-05-13T02:25:51.755Z,10.60
2018-05-13T02:26:51.552Z,10.30
2018-05-13T02:27:51.549Z,10.50
2018-05-13T02:28:51.759Z,10.40
2018-05-13T02:29:51.569Z,10.10
2018-05-13T02:30:51.566Z,10.30
2018-05-13T02:31:51.569Z,10.00
2018-05-13T02:32:51.555Z,9.80
2018-05-13T02:33:51.590Z,10.10
2018-05-13T02:34:51.558Z,9.90
2018-05-13T02:35:51.561Z,10.20
2018-05-13T02:36:51.559Z,9.60
2018-05-13T02:37:51.563Z,9.80
2018-05-13T02:38:51.566Z,10.40
2018-05-13T02:39:51.584Z,10.60
2018-05-13T02:40:51.563Z,10.60
2018-05-13T02:41:51.565Z,10.70
2018-05-13T02:42:51.565Z,10.20
2018-05-13T02:43:51.570Z,10.30
2018-05-13T02:44:51.579Z,11.60
2018-05-13T02:45:51.587Z,12.70
2018-05-13T02:46:51.584Z,11.60
2018-05-13T02:47:51.568Z,11.20
2018-05-13T02:48:51.798Z,11.10
2018-05-13T02:49:51.584Z,11.00
2018-05-13T02:50:51.572Z,11.30
2018-05-13T02:51:51.581Z,11.80
2018-05-13T02:52:51.575Z,11.40
2018-05-13T02:53:51.585Z,11.90
2018-05-13T02:54:51.816Z,11.60
2018-05-13T02:55:51.578Z,11.70
2018-05-13T02:56:51.792Z,11.40
2018-05-13T02:57:51.586Z,12.00
2018-05-13T02:58:51.781Z,11.30
2018-05-13T02:59:51.581Z,11.20
2018-05-13T03:00:51.579Z,10.70
2018-05-13T03:01:51.595Z,10.90
2018-05-13T03:02:51.784Z,10.80
2018-05-13T03:03:51.585Z,11.10
2018-05-13T03:04:51.585Z,11.40
2018-05-13T03:05:51.586Z,10.70
2018-05-13T03:06:51.609Z,11.20
2018-05-13T03:07:51.798Z,11.50
2018-05-13T03:08:51.604Z,11.40
2018-05-13T03:09:51.588Z,11.60
2018-05-13T03:10:51.611Z,11.90
2018-05-13T03:11:51.600Z,11.50
2018-05-13T03:12:51.588Z,12.20
2018-05-13T03:13:51.796Z,10.80
2018-05-13T03:14:51.799Z,11.60
2018-05-13T03:15:51.811Z,11.60
2018-05-13T03:16:51.613Z,10.90
2018-05-13T03:17:51.595Z,11.10
2018-05-13T03:18:51.601Z,11.40
2018-05-13T03:19:51.798Z,11.70
2018-05-13T03:20:51.609Z,10.90
2018-05-13T03:21:51.597Z,11.10
2018-05-13T03:22:51.600Z,10.40
2018-05-13T03:23:51.598Z,11.50
2018-05-13T03:24:51.630Z,10.70
2018-05-13T03:25:51.805Z,10.80
2018-05-13T03:26:51.603Z,10.60
2018-05-13T03:27:51.603Z,11.40
2018-05-13T03:28:51.614Z,11.00
2018-05-13T03:29:51.604Z,11.90
2018-05-13T03:30:51.615Z,11.70
2018-05-13T03:31:51.605Z,10.90
2018-05-13T03:32:51.606Z,11.50
2018-05-13T03:33:51.610Z,11.50
2018-05-13T03:34:51.609Z,12.10
2018-05-13T03:35:51.609Z,11.60
2018-05-13T03:36:51.627Z,12.30
2018-05-13T03:37:51.614Z,12.80
2018-05-13T03:38:51.628Z,12.20
2018-05-13T03:39:51.626Z,13.20
2018-05-13T03:40:51.621Z,12.90
2018-05-13T03:41:51.619Z,14.00
2018-05-13T03:42:51.619Z,15.30
2018-05-13T03:43:51.616Z,15.10
2018-05-13T03:44:51.630Z,14.50
2018-05-13T03:45:51.622Z,15.50
2018-05-13T03:46:51.640Z,14.80
2018-05-13T03:47:51.837Z,14.40
2018-05-13T03:48:51.637Z,15.50
2018-05-13T03:49:51.836Z,16.00
2018-05-13T03:50:51.635Z,15.50
2018-05-13T03:51:51.639Z,14.60
2018-05-13T03:52:51.630Z,15.70
2018-05-13T03:53:51.676Z,15.20
2018-05-13T03:54:51.643Z,15.80
2018-05-13T03:55:51.633Z,15.00
2018-05-13T03:56:51.843Z,15.10
2018-05-13T03:57:51.631Z,14.80
2018-05-13T03:58:51.632Z,15.70
2018-05-13T03:59:51.633Z,15.80
2018-05-13T04:00:51.653Z,15.40
2018-05-13T04:01:51.648Z,15.30
2018-05-13T04:02:51.640Z,15.10
2018-05-13T04:03:51.640Z,16.10
2018-05-13T04:04:51.640Z,15.90
2018-05-13T04:05:51.642Z,15.40
2018-05-13T04:06:51.655Z,15.60
2018-05-13T04:07:51.656Z,15.50
2018-05-13T04:08:51.645Z,15.10
2018-05-13T04:09:51.649Z,14.50
2018-05-13T04:10:51.651Z,15.10
2018-05-13T04:11:51.659Z,14.20
2018-05-13T04:12:51.654Z,14.50
2018-05-13T04:13:51.668Z,15.30
2018-05-13T04:14:51.662Z,14.90
2018-05-13T04:15:51.667Z,15.20
2018-05-13T04:16:51.660Z,15.00
2018-05-13T04:17:51.659Z,15.80
2018-05-13T04:18:51.661Z,15.40
2018-05-13T04:19:51.675Z,16.00
2018-05-13T04:20:51.664Z,16.10
2018-05-13T04:21:51.732Z,16.10
2018-05-13T04:22:51.665Z,16.30
2018-05-13T04:23:51.693Z,16.20
2018-05-13T04:24:51.677Z,15.70
2018-05-13T04:25:51.686Z,15.60
2018-05-13T04:26:51.671Z,15.40
2018-05-13T04:27:51.685Z,15.30
2018-05-13T04:28:51.684Z,15.00
2018-05-13T04:29:51.686Z,14.20
2018-05-13T04:30:51.686Z,15.90
2018-05-13T04:31:51.673Z,15.40
2018-05-13T04:32:51.676Z,15.30
2018-05-13T04:33:51.879Z,15.30
2018-05-13T04:34:51.679Z,14.90
2018-05-13T04:35:51.692Z,16.30
2018-05-13T04:36:51.684Z,15.50
2018-05-13T04:37:51.684Z,15.80
2018-05-13T04:38:51.885Z,15.70
2018-05-13T04:39:51.683Z,15.30
2018-05-13T04:40:51.696Z,16.40
2018-05-13T04:41:51.687Z,16.10
2018-05-13T04:42:51.905Z,16.60
2018-05-13T04:43:51.703Z,16.60
2018-05-13T04:44:51.893Z,16.40
2018-05-13T04:45:51.893Z,16.40
2018-05-13T04:46:51.692Z,16.60
2018-05-13T04:47:51.906Z,15.70
2018-05-13T04:48:51.693Z,17.10
2018-05-13T04:49:51.710Z,16.00
2018-05-13T04:50:51.695Z,16.20
2018-05-13T04:51:51.699Z,15.60
2018-05-13T04:52:51.699Z,15.40
2018-05-13T04:53:51.711Z,14.60
2018-05-13T04:54:51.718Z,15.20
2018-05-13T04:55:51.701Z,15.60
2018-05-13T04:56:51.719Z,14.70
2018-05-13T04:57:51.706Z,15.70
2018-05-13T04:58:51.728Z,15.20
2018-05-13T04:59:51.721Z,15.70
2018-05-13T05:00:51.705Z,14.30
2018-05-13T05:01:51.707Z,15.70
2018-05-13T05:02:51.713Z,15.60
2018-05-13T05:03:51.713Z,15.20
2018-05-13T05:04:51.727Z,15.70
2018-05-13T05:05:51.713Z,15.70
2018-05-13T05:06:51.729Z,15.60
2018-05-13T05:07:51.715Z,16.90
2018-05-13T05:08:51.742Z,15.90
2018-05-13T05:09:51.734Z,16.80
2018-05-13T05:10:51.731Z,16.80
2018-05-13T05:11:51.925Z,16.30
2018-05-13T05:12:51.926Z,15.80
2018-05-13T05:13:51.731Z,16.60
2018-05-13T05:14:51.725Z,16.20
2018-05-13T05:15:51.737Z,16.90
2018-05-13T05:16:51.738Z,17.30
2018-05-13T05:17:51.742Z,16.90
2018-05-13T05:18:51.731Z,17.30
2018-05-13T05:19:51.730Z,17.60
2018-05-13T05:20:51.730Z,17.70
2018-05-13T05:21:51.740Z,17.90
2018-05-13T05:22:51.736Z,18.40
2018-05-13T05:23:51.735Z,17.60
2018-05-13T05:24:51.738Z,16.70
2018-05-13T05:25:51.738Z,17.10
2018-05-13T05:26:51.766Z,16.90
2018-05-13T05:27:51.846Z,17.20
2018-05-13T05:28:51.740Z,17.50
2018-05-13T05:29:51.953Z,16.70
2018-05-13T05:30:51.752Z,17.30
2018-05-13T05:31:51.743Z,17.40
2018-05-13T05:32:51.947Z,17.60
2018-05-13T05:33:51.770Z,17.70
2018-05-13T05:34:51.775Z,17.60
2018-05-13T05:35:51.856Z,17.00
2018-05-13T05:36:51.758Z,18.00
2018-05-13T05:37:51.750Z,16.90
2018-05-13T05:38:51.751Z,17.70
2018-05-13T05:39:51.755Z,16.60
2018-05-13T05:40:51.752Z,16.90
2018-05-13T05:41:51.757Z,16.40
2018-05-13T05:42:51.756Z,15.90
2018-05-13T05:43:51.777Z,16.20
2018-05-13T05:44:51.760Z,16.70
2018-05-13T05:45:51.762Z,15.80
2018-05-13T05:46:51.761Z,16.10
2018-05-13T05:47:51.777Z,16.80
2018-05-13T05:48:51.780Z,16.50
2018-05-13T05:49:51.778Z,17.00
2018-05-13T05:50:51.973Z,16.70
2018-05-13T05:51:51.795Z,16.50
2018-05-13T05:52:51.773Z,16.70
2018-05-13T05:53:51.785Z,16.20
2018-05-13T05:54:51.785Z,16.50
2018-05-13T05:55:51.775Z,16.00
2018-05-13T05:56:51.779Z,15.40
2018-05-13T05:57:51.790Z,16.20
2018-05-13T05:58:51.793Z,15.10
2018-05-13T05:59:51.794Z,15.80
2018-05-13T06:00:51.984Z,16.30
2018-05-13T06:01:51.785Z,16.60
2018-05-13T06:02:51.799Z,16.00
2018-05-13T06:03:52.003Z,15.50
2018-05-13T06:04:51.788Z,15.80
2018-05-13T06:05:51.801Z,15.10
2018-05-13T06:06:51.824Z,14.70
2018-05-13T06:07:51.808Z,15.00
2018-05-13T06:08:51.798Z,15.10
2018-05-13T06:09:51.809Z,15.10
2018-05-13T06:10:51.814Z,15.30
2018-05-13T06:11:51.831Z,16.00
2018-05-13T06:12:51.804Z,15.50
2018-05-13T06:13:51.819Z,15.20
2018-05-13T06:14:51.808Z,16.10
2018-05-13T06:15:51.809Z,15.40
2018-05-13T06:16:51.820Z,15.40
2018-05-13T06:17:51.815Z,14.60
2018-05-13T06:18:51.827Z,15.60
2018-05-13T06:19:51.827Z,14.90
2018-05-13T06:20:51.818Z,14.90
2018-05-13T06:21:51.826Z,14.80
2018-05-13T06:22:51.844Z,15.10
2018-05-13T06:23:51.836Z,14.40
2018-05-13T06:24:51.836Z,16.00
2018-05-13T06:25:51.845Z,15.80
2018-05-13T06:26:51.830Z,15.30
2018-05-13T06:27:51.834Z,15.80
2018-05-13T06:28:51.836Z,15.60
2018-05-13T06:29:51.859Z,15.50
2018-05-13T06:30:51.855Z,15.60
2018-05-13T06:31:51.860Z,15.60
2018-05-13T06:32:51.841Z,15.60
2018-05-13T06:33:51.869Z,15.60
2018-05-13T06:34:51.859Z,14.70
2018-05-13T06:35:51.846Z,14.30
2018-05-13T06:36:51.879Z,14.50
2018-05-13T06:37:51.863Z,15.30
2018-05-13T06:38:51.859Z,14.60
2018-05-13T06:39:51.853Z,14.70
2018-05-13T06:40:51.873Z,14.80
2018-05-13T06:41:51.868Z,13.50
2018-05-13T06:42:51.888Z,14.40
2018-05-13T06:43:51.877Z,14.20
2018-05-13T06:44:51.875Z,13.80
2018-05-13T06:45:51.881Z,13.90
2018-05-13T06:46:51.892Z,14.50
2018-05-13T06:47:52.075Z,14.10
2018-05-13T06:48:51.885Z,13.80
2018-05-13T06:49:51.890Z,14.80
2018-05-13T06:50:52.132Z,14.50
2018-05-13T06:51:51.888Z,14.40
2018-05-13T06:52:51.890Z,13.90
2018-05-13T06:53:51.883Z,14.70
2018-05-13T06:54:52.179Z,14.40
2018-05-13T06:55:51.909Z,14.60
2018-05-13T06:56:51.893Z,14.00
2018-05-13T06:57:51.905Z,14.00
2018-05-13T06:58:51.911Z,14.00
2018-05-13T06:59:51.909Z,14.40
2018-05-13T07:00:51.895Z,14.20
2018-05-13T07:01:51.914Z,14.10
2018-05-13T07:02:51.957Z,14.70
2018-05-13T07:03:51.902Z,14.50
2018-05-13T07:04:51.922Z,15.30
2018-05-13T07:05:51.918Z,14.90
2018-05-13T07:06:51.909Z,15.50
2018-05-13T07:07:51.921Z,15.90
2018-05-13T07:08:51.911Z,15.70
2018-05-13T07:09:51.915Z,15.90
2018-05-13T07:10:52.121Z,15.40
2018-05-13T07:11:51.918Z,15.80
2018-05-13T07:12:51.919Z,15.30
2018-05-13T07:13:51.948Z,15.40
2018-05-13T07:14:51.924Z,16.00
2018-05-13T07:15:52.128Z,16.10
2018-05-13T07:16:51.948Z,15.80
2018-05-13T07:17:52.147Z,16.00
2018-05-13T07:18:52.155Z,16.60
2018-05-13T07:19:51.966Z,16.50
2018-05-13T07:20:51.949Z,17.30
2018-05-13T07:21:51.948Z,16.90
2018-05-13T07:22:51.943Z,17.50
2018-05-13T07:23:52.168Z,17.50
2018-05-13T07:24:51.947Z,18.20
2018-05-13T07:25:51.948Z,18.60
2018-05-13T07:26:51.950Z,19.30
2018-05-13T07:27:51.962Z,18.20
2018-05-13T07:28:51.954Z,19.10
2018-05-13T07:29:52.003Z,18.10
2018-05-13T07:30:51.954Z,17.90
2018-05-13T07:31:51.966Z,18.40
2018-05-13T07:32:51.957Z,19.20
2018-05-13T07:33:51.973Z,19.10
2018-05-13T07:34:51.961Z,19.40
2018-05-13T07:35:51.979Z,19.30
2018-05-13T07:36:51.976Z,19.70
2018-05-13T07:37:51.968Z,20.00
2018-05-13T07:38:51.982Z,19.50
2018-05-13T07:39:51.983Z,20.50
2018-05-13T07:40:51.985Z,20.40
2018-05-13T07:41:52.002Z,20.60
2018-05-13T07:42:51.988Z,20.80
2018-05-13T07:43:52.003Z,20.50
2018-05-13T07:44:51.986Z,20.60
2018-05-13T07:45:52.008Z,21.40
2018-05-13T07:46:51.996Z,21.80
2018-05-13T07:47:51.997Z,22.40
2018-05-13T07:48:51.984Z,22.40
2018-05-13T07:49:52.015Z,22.60
2018-05-13T07:50:52.058Z,22.20
2018-05-13T07:51:51.989Z,22.50
2018-05-13T07:52:51.995Z,22.50
2018-05-13T07:53:52.022Z,22.50
2018-05-13T07:54:51.993Z,22.10
2018-05-13T07:55:52.008Z,22.00
2018-05-13T07:56:51.997Z,22.20
2018-05-13T07:57:52.020Z,21.70
2018-05-13T07:58:52.018Z,22.40
2018-05-13T07:59:52.003Z,22.20
2018-05-13T08:00:52.007Z,22.30
2018-05-13T08:01:52.020Z,22.50
2018-05-13T08:02:52.011Z,22.60
2018-05-13T08:03:52.026Z,23.00
2018-05-13T08:04:52.014Z,23.20
2018-05-13T08:05:52.014Z,24.20
2018-05-13T08:06:52.028Z,23.50
2018-05-13T08:07:52.018Z,23.50
2018-05-13T08:08:52.021Z,24.40
2018-05-13T08:09:52.048Z,24.70
2018-05-13T08:10:52.026Z,25.40
2018-05-13T08:11:52.025Z,26.70
2018-05-13T08:12:52.030Z,25.50
2018-05-13T08:13:52.043Z,25.80
2018-05-13T08:14:52.060Z,26.90
2018-05-13T08:15:52.043Z,27.60
2018-05-13T08:16:52.033Z,27.20
2018-05-13T08:17:52.060Z,25.30
2018-05-13T08:18:52.060Z,27.20
2018-05-13T08:19:52.268Z,28.50
2018-05-13T08:20:52.039Z,29.60
2018-05-13T08:21:52.038Z,29.50
2018-05-13T08:22:52.041Z,27.30
2018-05-13T08:23:52.054Z,26.70
2018-05-13T08:24:52.044Z,29.10
2018-05-13T08:25:52.048Z,29.80
2018-05-13T08:26:52.049Z,31.10
2018-05-13T08:27:52.055Z,31.00
2018-05-13T08:28:52.049Z,30.50
2018-05-13T08:29:52.055Z,33.10
2018-05-13T08:30:52.068Z,34.40
2018-05-13T08:31:52.056Z,37.70
2018-05-13T08:32:52.058Z,40.50
2018-05-13T08:33:52.089Z,42.00
2018-05-13T08:34:52.075Z,45.00
2018-05-13T08:35:52.076Z,44.30
2018-05-13T08:36:52.075Z,46.00
2018-05-13T08:37:52.071Z,47.00
2018-05-13T08:38:52.082Z,46.40
2018-05-13T08:39:52.081Z,49.10
2018-05-13T08:40:52.074Z,47.00
2018-05-13T08:41:52.091Z,47.00
2018-05-13T08:42:52.088Z,44.80
2018-05-13T08:43:52.091Z,46.80
2018-05-13T08:44:52.094Z,46.30
2018-05-13T08:45:52.084Z,47.40
2018-05-13T08:46:52.085Z,47.80
2018-05-13T08:47:52.098Z,46.80
2018-05-13T08:48:52.092Z,46.70
2018-05-13T08:49:52.092Z,47.00
2018-05-13T08:50:52.092Z,49.00
2018-05-13T08:51:52.096Z,51.70
2018-05-13T08:52:52.093Z,54.00
2018-05-13T08:53:52.108Z,54.70
2018-05-13T08:54:52.117Z,55.90
2018-05-13T08:55:52.110Z,57.40
2018-05-13T08:56:52.112Z,57.90
2018-05-13T08:57:52.115Z,59.40
2018-05-13T08:58:52.106Z,59.50
2018-05-13T08:59:52.104Z,59.90
2018-05-13T09:00:52.115Z,64.30
2018-05-13T09:01:52.112Z,62.20
2018-05-13T09:02:52.112Z,63.60
2018-05-13T09:03:52.111Z,66.70
2018-05-13T09:04:52.124Z,68.80
2018-05-13T09:05:52.115Z,66.60
2018-05-13T09:06:52.126Z,65.70
2018-05-13T09:07:52.131Z,68.60
2018-05-13T09:08:52.119Z,66.70
2018-05-13T09:09:52.146Z,66.70
2018-05-13T09:10:52.135Z,66.30
2018-05-13T09:11:52.120Z,67.60
2018-05-13T09:12:52.125Z,72.50
2018-05-13T09:13:52.125Z,72.70
2018-05-13T09:14:52.135Z,69.40
2018-05-13T09:15:52.138Z,70.80
2018-05-13T09:16:52.135Z,73.10
2018-05-13T09:17:52.142Z,73.40
2018-05-13T09:18:52.133Z,72.60
2018-05-13T09:19:52.131Z,71.20
2018-05-13T09:20:52.168Z,70.60
2018-05-13T09:21:52.162Z,71.90
2018-05-13T09:22:52.153Z,74.20
2018-05-13T09:23:52.136Z,76.50
2018-05-13T09:24:52.150Z,75.30
2018-05-13T09:25:52.142Z,77.00
2018-05-13T09:26:52.154Z,79.60
2018-05-13T09:27:52.143Z,79.20
2018-05-13T09:28:52.145Z,81.30
2018-05-13T09:29:52.157Z,82.20
2018-05-13T09:30:52.160Z,82.10
2018-05-13T09:31:52.149Z,81.10
2018-05-13T09:32:52.172Z,83.30
2018-05-13T09:33:52.168Z,84.70
2018-05-13T09:34:52.155Z,87.20
2018-05-13T09:35:52.155Z,85.20
2018-05-13T09:36:52.153Z,85.30
2018-05-13T09:37:52.157Z,86.10
2018-05-13T09:38:52.166Z,88.30
2018-05-13T09:39:52.161Z,88.80
2018-05-13T09:40:52.169Z,85.70
2018-05-13T09:41:52.185Z,87.10
2018-05-13T09:42:52.165Z,85.60
2018-05-13T09:43:52.177Z,88.50
2018-05-13T09:44:52.177Z,89.60
2018-05-13T09:45:52.255Z,90.60
2018-05-13T09:46:52.166Z,92.30
2018-05-13T09:47:52.167Z,94.50
2018-05-13T09:48:52.172Z,97.10
2018-05-13T09:49:52.187Z,96.30
2018-05-13T09:50:52.171Z,97.50
2018-05-13T09:51:52.172Z,96.60
2018-05-13T09:52:52.173Z,95.50
2018-05-13T09:53:52.194Z,98.30
2018-05-13T09:54:52.217Z,99.60
2018-05-13T09:55:52.180Z,103.90
2018-05-13T09:56:52.179Z,102.10
2018-05-13T09:57:52.181Z,102.20
2018-05-13T09:58:52.185Z,102.80
2018-05-13T09:59:52.192Z,103.00
2018-05-13T10:00:52.182Z,107.10
2018-05-13T10:01:52.185Z,105.90
2018-05-13T10:02:52.210Z,104.10
2018-05-13T10:03:52.209Z,102.30
2018-05-13T10:04:52.204Z,105.80
2018-05-13T10:05:52.204Z,104.20
2018-05-13T10:06:52.188Z,103.70
2018-05-13T10:07:52.203Z,104.90
2018-05-13T10:08:52.192Z,103.30
2018-05-13T10:09:52.203Z,107.50
2018-05-13T10:10:52.220Z,105.00
2018-05-13T10:11:52.198Z,109.60
2018-05-13T10:12:52.195Z,110.10
2018-05-13T10:13:52.419Z,113.10
2018-05-13T10:14:52.415Z,114.40
2018-05-13T10:15:52.212Z,113.10
2018-05-13T10:16:52.217Z,115.20
2018-05-13T10:17:52.200Z,112.40
2018-05-13T10:18:52.202Z,113.50
2018-05-13T10:19:52.205Z,114.40
2018-05-13T10:20:52.205Z,112.70
2018-05-13T10:21:52.233Z,116.10
2018-05-13T10:22:52.215Z,112.20
2018-05-13T10:23:52.207Z,116.40
2018-05-13T10:24:52.232Z,118.90
2018-05-13T10:25:52.224Z,116.90
2018-05-13T10:26:52.211Z,118.30
2018-05-13T10:27:52.208Z,118.80
2018-05-13T10:28:52.210Z,117.60
2018-05-13T10:29:52.213Z,114.90
2018-05-13T10:30:52.225Z,117.80
2018-05-13T10:31:52.216Z,114.90
2018-05-13T10:32:52.226Z,117.60
2018-05-13T10:33:52.230Z,119.80
2018-05-13T10:34:52.216Z,117.00
2018-05-13T10:35:52.228Z,117.30
2018-05-13T10:36:52.227Z,119.90
2018-05-13T10:37:52.221Z,122.00
2018-05-13T10:38:52.250Z,121.60
2018-05-13T10:39:52.231Z,121.50
2018-05-13T10:40:52.254Z,120.20
2018-05-13T10:41:52.256Z,121.00
2018-05-13T10:42:52.239Z,120.70
2018-05-13T10:43:52.234Z,121.00
2018-05-13T10:44:52.229Z,123.20
2018-05-13T10:45:52.229Z,122.40
2018-05-13T10:46:52.255Z,118.60
2018-05-13T10:47:52.244Z,120.90
2018-05-13T10:48:52.233Z,119.20
2018-05-13T10:49:52.237Z,121.60
2018-05-13T10:50:52.248Z,120.30
2018-05-13T10:51:52.233Z,119.80
2018-05-13T10:52:52.235Z,120.70
2018-05-13T10:53:52.238Z,117.30
2018-05-13T10:54:52.240Z,119.20
2018-05-13T10:55:52.265Z,120.80
2018-05-13T10:56:52.238Z,118.50
2018-05-13T10:57:52.335Z,120.50
2018-05-13T10:58:52.246Z,117.90
2018-05-13T10:59:52.243Z,120.30
2018-05-13T11:00:52.254Z,123.00
2018-05-13T11:01:52.256Z,124.90
2018-05-13T11:02:52.243Z,123.90
2018-05-13T11:03:52.463Z,127.40
2018-05-13T11:04:52.315Z,126.70
2018-05-13T11:05:52.262Z,129.90
2018-05-13T11:06:52.271Z,129.20
2018-05-13T11:07:52.261Z,127.40
2018-05-13T11:08:52.273Z,130.20
2018-05-13T11:09:52.263Z,129.40
2018-05-13T11:10:52.252Z,131.30
2018-05-13T11:11:52.250Z,130.00
2018-05-13T11:12:52.252Z,127.90
2018-05-13T11:13:52.250Z,130.00
2018-05-13T11:14:52.267Z,133.30
2018-05-13T11:15:52.274Z,132.00
2018-05-13T11:16:52.470Z,130.00
2018-05-13T11:17:52.286Z,134.10
2018-05-13T11:18:52.280Z,134.00
2018-05-13T11:19:52.267Z,132.60
2018-05-13T11:20:52.286Z,130.10
2018-05-13T11:21:52.258Z,129.30
2018-05-13T11:22:52.256Z,132.40
2018-05-13T11:23:52.257Z,130.10
2018-05-13T11:24:52.286Z,126.20
2018-05-13T11:25:52.292Z,125.40
2018-05-13T11:26:52.278Z,125.60
2018-05-13T11:27:52.273Z,125.00
2018-05-13T11:28:52.267Z,124.40
2018-05-13T11:29:52.261Z,127.80
2018-05-13T11:30:52.264Z,127.60
2018-05-13T11:31:52.280Z,125.70
2018-05-13T11:32:52.262Z,121.70
2018-05-13T11:33:52.305Z,124.40
2018-05-13T11:34:52.285Z,123.30
2018-05-13T11:35:52.262Z,122.20
2018-05-13T11:36:52.280Z,121.20
2018-05-13T11:37:52.265Z,117.90
2018-05-13T11:38:52.276Z,118.00
2018-05-13T11:39:52.287Z,116.80
2018-05-13T11:40:52.284Z,112.40
2018-05-13T11:41:52.279Z,115.10
2018-05-13T11:42:52.282Z,110.60
2018-05-13T11:43:52.279Z,107.50
2018-05-13T11:44:52.270Z,106.70
2018-05-13T11:45:52.284Z,105.70
2018-05-13T11:46:52.279Z,104.80
2018-05-13T11:47:52.294Z,100.00
2018-05-13T11:48:52.286Z,102.50
2018-05-13T11:49:52.282Z,101.70
2018-05-13T11:50:52.274Z,101.10
2018-05-13T11:51:52.274Z,96.80
2018-05-13T11:52:52.276Z,97.10
2018-05-13T11:53:52.272Z,95.20
2018-05-13T11:54:52.280Z,97.20
2018-05-13T11:55:52.277Z,94.50
2018-05-13T11:56:52.274Z,98.10
2018-05-13T11:57:52.286Z,97.50
2018-05-13T11:58:52.276Z,97.60
2018-05-13T11:59:52.276Z,98.30
2018-05-13T12:00:52.281Z,95.00
2018-05-13T12:01:52.279Z,99.00
2018-05-13T12:02:52.279Z,104.10
2018-05-13T12:03:52.280Z,104.60
2018-05-13T12:04:52.291Z,102.60
2018-05-13T12:05:52.282Z,104.60
2018-05-13T12:06:52.494Z,103.30
2018-05-13T12:07:52.281Z,104.30
2018-05-13T12:08:52.485Z,103.00
2018-05-13T12:09:52.297Z,101.70
2018-05-13T12:10:52.487Z,101.70
2018-05-13T12:11:52.499Z,102.50
2018-05-13T12:12:52.311Z,103.50
2018-05-13T12:13:52.294Z,102.50
2018-05-13T12:14:52.295Z,102.00
2018-05-13T12:15:52.488Z,102.60
2018-05-13T12:16:52.309Z,102.20
2018-05-13T12:17:52.304Z,100.20
2018-05-13T12:18:52.286Z,102.10
2018-05-13T12:19:52.286Z,102.20
2018-05-13T12:20:52.286Z,101.10
2018-05-13T12:21:52.287Z,99.50
2018-05-13T12:22:52.304Z,99.30
2018-05-13T12:23:52.300Z,99.60
2018-05-13T12:24:52.286Z,95.70
2018-05-13T12:25:52.302Z,94.10
2018-05-13T12:26:52.493Z,93.10
2018-05-13T12:27:52.298Z,93.50
2018-05-13T12:28:52.361Z,89.90
2018-05-13T12:29:52.491Z,88.70
2018-05-13T12:30:52.289Z,88.50
2018-05-13T12:31:52.301Z,89.20
2018-05-13T12:32:52.291Z,87.90
2018-05-13T12:33:52.292Z,86.60
2018-05-13T12:34:52.300Z,87.30
2018-05-13T12:35:52.307Z,89.40
2018-05-13T12:36:52.303Z,86.50
2018-05-13T12:37:52.294Z,85.60
2018-05-13T12:38:52.499Z,85.20
2018-05-13T12:39:52.308Z,84.60
2018-05-13T12:40:52.299Z,84.40
2018-05-13T12:41:52.306Z,85.10
2018-05-13T12:42:52.304Z,89.10
2018-05-13T12:43:52.321Z,87.10
2018-05-13T12:44:52.313Z,88.50
2018-05-13T12:45:52.313Z,87.20
2018-05-13T12:46:52.533Z,86.00
2018-05-13T12:47:52.322Z,85.40
2018-05-13T12:48:52.296Z,86.20
2018-05-13T12:49:52.302Z,82.80
2018-05-13T12:50:52.300Z,83.20
2018-05-13T12:51:52.322Z,83.40
2018-05-13T12:52:52.312Z,84.30